Time;durP1;ratioP1;P1;durP2;ratioP2;P2;SDS_P1;SDS_P2;PMS_P1;PMS_P2;Temp;Humidity;BMP_temperature;BMP_pressure;BME280_temperature;BME280_humidity;BME280_pressure;Samples;Min_cycle;Max_cycle;Signal;HPM_P1;HPM_P2
2022/09/27 00:00:05;;;;;;;2.35;0.77;;;9.90;99.90;;;;;;4990722;28;20088;-67
2022/09/27 00:02:31;;;;;;;1.88;0.95;;;9.80;99.90;;;;;;4985359;28;20106;-65
2022/09/27 00:04:57;;;;;;;2.13;1.30;;;9.80;99.90;;;;;;4990421;28;20105;-64
2022/09/27 00:07:23;;;;;;;2.22;1.15;;;9.80;99.90;;;;;;4987313;28;20045;-66
2022/09/27 00:09:49;;;;;;;2.35;1.20;;;9.70;99.90;;;;;;4988015;28;20519;-66
2022/09/27 00:12:15;;;;;;;2.95;1.15;;;9.60;99.90;;;;;;4988966;28;20042;-65
2022/09/27 00:14:40;;;;;;;3.55;1.13;;;9.60;99.90;;;;;;4989650;28;20113;-65
2022/09/27 00:17:06;;;;;;;3.55;1.00;;;9.60;99.90;;;;;;4977951;28;20353;-65
2022/09/27 00:19:32;;;;;;;3.63;1.00;;;9.60;99.90;;;;;;4990164;28;20045;-65
2022/09/27 00:22:00;;;;;;;9.40;1.38;;;9.60;99.90;;;;;;4987858;28;20374;-64
2022/09/27 00:24:26;;;;;;;5.03;1.05;;;9.60;99.90;;;;;;4991370;28;20356;-68
2022/09/27 00:26:51;;;;;;;2.67;1.02;;;9.50;99.90;;;;;;4988234;28;20026;-67
2022/09/27 00:29:18;;;;;;;2.78;1.20;;;9.60;99.90;;;;;;4989510;28;20085;-63
2022/09/27 00:31:44;;;;;;;4.43;1.05;;;9.50;99.90;;;;;;4989562;28;20081;-65
2022/09/27 00:34:21;;;;;;;5.82;0.93;;;9.50;99.90;;;;;;4989814;28;20045;-65
2022/09/27 00:36:48;;;;;;;2.33;0.90;;;9.60;99.90;;;;;;4988597;28;20022;-65
2022/09/27 00:39:14;;;;;;;4.93;1.02;;;9.60;99.90;;;;;;4990572;28;20132;-65
2022/09/27 00:41:41;;;;;;;3.15;1.13;;;9.50;99.90;;;;;;4986996;28;20077;-65
2022/09/27 00:44:25;;;;;;;3.60;1.00;;;9.50;99.90;;;;;;4987276;28;20031;-64
2022/09/27 00:47:02;;;;;;;2.97;1.20;;;9.50;99.90;;;;;;4987515;28;20126;-68
2022/09/27 00:49:30;;;;;;;2.60;1.08;;;9.50;99.90;;;;;;4987246;28;20034;-68
2022/09/27 00:52:02;;;;;;;3.72;1.30;;;9.50;99.90;;;;;;4984938;28;20041;-65
2022/09/27 00:54:31;;;;;;;1.88;1.25;;;9.50;99.90;;;;;;4989520;28;20054;-67
2022/09/27 00:56:58;;;;;;;4.10;1.42;;;9.50;99.90;;;;;;4989103;28;20034;-65
2022/09/27 00:59:36;;;;;;;2.25;1.17;;;9.40;99.90;;;;;;4990470;28;20030;-65
2022/09/27 01:02:06;;;;;;;3.65;1.25;;;9.40;99.90;;;;;;4988108;28;20026;-64
2022/09/27 01:04:35;;;;;;;2.03;1.10;;;9.50;99.90;;;;;;4989576;28;20030;-65
2022/09/27 01:07:01;;;;;;;2.50;1.02;;;9.50;99.90;;;;;;4989118;28;20034;-65
2022/09/27 01:09:27;;;;;;;3.25;1.20;;;9.50;99.90;;;;;;4986930;28;20041;-69
2022/09/27 01:12:00;;;;;;;4.22;1.13;;;9.50;99.90;;;;;;4989213;28;20471;-63
2022/09/27 01:14:38;;;;;;;3.05;1.20;;;9.40;99.90;;;;;;4968857;28;20062;-64
2022/09/27 01:17:19;;;;;;;6.63;1.00;;;9.40;99.90;;;;;;4988018;28;20491;-65
2022/09/27 01:20:09;;;;;;;2.45;1.10;;;9.50;99.90;;;;;;4986862;28;20035;-64
2022/09/27 01:22:50;;;;;;;1.75;0.90;;;9.50;99.90;;;;;;4987818;28;20034;-63
2022/09/27 01:25:16;;;;;;;1.35;0.77;;;9.40;99.90;;;;;;4987322;28;20046;-63
2022/09/27 01:28:05;;;;;;;2.28;0.77;;;9.50;99.90;;;;;;4987332;28;20101;-65
2022/09/27 01:31:01;;;;;;;1.73;0.90;;;9.40;99.90;;;;;;4971077;28;20026;-69
2022/09/27 01:33:47;;;;;;;1.45;0.70;;;9.40;99.90;;;;;;4973993;28;20074;-63
2022/09/27 01:36:29;;;;;;;2.58;0.63;;;9.50;99.90;;;;;;4986470;28;20034;-63
2022/09/27 01:38:58;;;;;;;2.03;0.70;;;9.60;99.90;;;;;;4988582;28;20034;-63
2022/09/27 01:41:38;;;;;;;1.60;0.75;;;9.50;99.90;;;;;;4989082;28;20122;-65
2022/09/27 01:44:40;;;;;;;1.20;0.80;;;9.50;99.90;;;;;;4990864;28;20776;-67
2022/09/27 01:47:20;;;;;;;2.08;0.80;;;9.50;99.90;;;;;;4984831;28;20034;-65
2022/09/27 01:50:07;;;;;;;1.77;0.73;;;9.50;99.90;;;;;;4983233;28;20049;-64
2022/09/27 01:52:52;;;;;;;2.70;0.80;;;9.50;99.90;;;;;;4987644;28;20117;-68
2022/09/27 01:55:22;;;;;;;2.55;0.63;;;9.50;99.90;;;;;;4979582;28;20055;-64
2022/09/27 01:58:04;;;;;;;1.25;0.70;;;9.50;99.90;;;;;;4988304;28;20030;-66
2022/09/27 02:00:30;;;;;;;2.25;0.60;;;9.40;99.90;;;;;;4985657;28;20038;-69
2022/09/27 02:03:05;;;;;;;2.90;0.88;;;9.40;99.90;;;;;;4988732;28;20026;-65
2022/09/27 02:05:37;;;;;;;3.22;0.82;;;9.40;99.90;;;;;;4986777;28;20026;-70
2022/09/27 02:08:19;;;;;;;5.70;0.82;;;9.40;99.90;;;;;;4983382;28;20169;-64
2022/09/27 02:10:45;;;;;;;1.88;1.00;;;9.30;99.90;;;;;;4986344;28;20512;-66
2022/09/27 02:13:21;;;;;;;1.13;0.40;;;9.40;99.90;;;;;;4991838;28;20023;-64
2022/09/27 02:16:07;;;;;;;2.67;0.57;;;9.40;99.90;;;;;;4989379;28;20109;-64
2022/09/27 02:19:01;;;;;;;1.98;0.77;;;9.50;99.90;;;;;;4991197;28;20088;-68
2022/09/27 02:21:40;;;;;;;1.73;0.60;;;9.40;99.90;;;;;;4992480;28;20061;-64
2022/09/27 02:24:11;;;;;;;0.70;0.50;;;9.40;99.90;;;;;;4991904;28;20048;-65
2022/09/27 02:26:41;;;;;;;1.38;0.90;;;9.40;99.90;;;;;;4991695;28;20026;-64
2022/09/27 02:29:17;;;;;;;4.53;0.60;;;9.40;99.90;;;;;;4991567;28;20023;-63
2022/09/27 02:31:42;;;;;;;3.35;0.85;;;9.40;99.90;;;;;;4992184;28;20070;-63
2022/09/27 02:34:17;;;;;;;2.10;0.65;;;9.40;99.90;;;;;;4991292;28;20510;-65
2022/09/27 02:36:43;;;;;;;1.45;0.50;;;9.40;99.90;;;;;;4987326;28;20034;-64
2022/09/27 02:39:10;;;;;;;3.08;0.57;;;9.40;99.90;;;;;;4990626;28;20037;-66
2022/09/27 02:41:36;;;;;;;0.80;0.40;;;9.40;99.90;;;;;;4990464;28;20033;-68
2022/09/27 02:44:08;;;;;;;1.02;0.60;;;9.50;99.90;;;;;;4991650;28;20030;-64
2022/09/27 02:47:03;;;;;;;2.00;0.52;;;9.50;99.90;;;;;;4992639;28;20034;-69
2022/09/27 02:50:03;;;;;;;1.42;0.63;;;9.50;99.90;;;;;;4992750;28;20041;-65
2022/09/27 02:52:31;;;;;;;3.55;0.57;;;9.50;99.90;;;;;;4990772;28;20053;-65
2022/09/27 02:55:41;;;;;;;0.85;0.43;;;9.60;99.90;;;;;;4962611;28;20102;-65
2022/09/27 02:58:16;;;;;;;0.95;0.50;;;9.60;99.90;;;;;;4929034;28;20051;-64
2022/09/27 03:00:51;;;;;;;1.15;0.55;;;9.60;99.90;;;;;;4975727;28;20022;-64
2022/09/27 03:03:51;;;;;;;1.67;0.57;;;9.50;99.90;;;;;;4983385;28;20479;-64
2022/09/27 03:06:20;;;;;;;1.00;0.50;;;9.50;99.90;;;;;;4940479;28;20550;-64
2022/09/27 03:08:45;;;;;;;1.88;0.45;;;9.40;99.90;;;;;;4984945;28;20034;-65
2022/09/27 03:11:11;;;;;;;0.77;0.43;;;9.40;99.90;;;;;;4971605;28;20031;-65
2022/09/27 03:13:37;;;;;;;1.08;0.60;;;9.40;99.90;;;;;;4971170;28;20476;-66
2022/09/27 03:16:06;;;;;;;1.48;0.50;;;9.40;99.90;;;;;;4972708;28;20037;-64
2022/09/27 03:18:33;;;;;;;1.63;0.47;;;9.40;99.90;;;;;;4954373;28;20034;-64
2022/09/27 03:20:58;;;;;;;1.48;0.50;;;9.40;99.90;;;;;;4975159;28;20574;-64
2022/09/27 03:23:25;;;;;;;1.20;0.40;;;9.40;99.90;;;;;;4956183;28;20040;-66
2022/09/27 03:25:51;;;;;;;1.92;0.43;;;9.40;99.90;;;;;;4974324;28;20054;-65
2022/09/27 03:28:17;;;;;;;0.77;0.40;;;9.40;99.90;;;;;;4978769;28;20384;-64
2022/09/27 03:30:46;;;;;;;0.75;0.43;;;9.40;99.90;;;;;;4967372;28;20034;-63
2022/09/27 03:33:12;;;;;;;1.73;0.63;;;9.40;99.90;;;;;;4977452;28;20027;-64
2022/09/27 03:35:38;;;;;;;1.77;0.50;;;9.40;99.90;;;;;;4970032;28;20487;-69
2022/09/27 03:38:05;;;;;;;1.48;0.50;;;9.40;99.90;;;;;;4978148;28;20073;-64
2022/09/27 03:40:32;;;;;;;1.00;0.50;;;9.40;99.90;;;;;;4971380;28;20062;-65
2022/09/27 03:42:57;;;;;;;7.18;0.75;;;9.40;99.90;;;;;;4973136;28;20215;-64
2022/09/27 03:45:23;;;;;;;1.00;0.50;;;9.30;99.90;;;;;;4988772;28;20467;-64
2022/09/27 03:47:49;;;;;;;2.63;0.60;;;9.30;99.90;;;;;;4982891;28;20488;-65
2022/09/27 03:50:15;;;;;;;1.75;0.70;;;9.30;99.90;;;;;;4990118;28;20133;-65
2022/09/27 03:52:42;;;;;;;1.52;0.60;;;9.30;99.90;;;;;;4982893;28;20031;-68
2022/09/27 03:55:08;;;;;;;2.60;0.60;;;9.30;99.90;;;;;;4989745;28;20046;-63
2022/09/27 03:57:34;;;;;;;2.30;0.60;;;9.30;99.90;;;;;;4987084;28;20482;-65
2022/09/27 04:00:00;;;;;;;2.35;0.60;;;9.20;99.90;;;;;;4988476;28;20061;-64
2022/09/27 04:02:27;;;;;;;1.50;0.80;;;9.20;99.90;;;;;;4988665;28;20030;-65
2022/09/27 04:04:53;;;;;;;1.65;0.70;;;9.20;99.90;;;;;;4984578;28;20030;-65
2022/09/27 04:07:18;;;;;;;1.88;0.73;;;9.20;99.90;;;;;;4985230;28;20096;-65
2022/09/27 04:09:45;;;;;;;2.13;0.98;;;9.10;99.90;;;;;;4970423;28;20041;-65
2022/09/27 04:12:12;;;;;;;3.65;0.93;;;9.10;99.90;;;;;;4988512;28;20105;-65
2022/09/27 04:14:37;;;;;;;4.38;1.23;;;9.10;99.90;;;;;;4990184;28;20038;-67
2022/09/27 04:17:03;;;;;;;3.05;1.20;;;9.10;99.90;;;;;;4989090;28;20045;-63
2022/09/27 04:19:29;;;;;;;2.42;0.85;;;9.10;99.90;;;;;;4971619;28;20035;-64
2022/09/27 04:21:54;;;;;;;2.83;0.95;;;9.10;99.90;;;;;;4988019;28;20034;-63
2022/09/27 04:24:20;;;;;;;2.40;0.73;;;9.10;99.90;;;;;;4973503;28;20096;-64
2022/09/27 04:26:46;;;;;;;2.60;1.00;;;9.10;99.90;;;;;;4990374;28;20038;-64
2022/09/27 04:29:12;;;;;;;2.22;0.90;;;9.00;99.90;;;;;;4989441;28;20037;-65
2022/09/27 04:31:37;;;;;;;1.95;0.70;;;9.00;99.90;;;;;;4987308;28;20072;-64
2022/09/27 04:34:04;;;;;;;3.78;1.02;;;9.00;99.90;;;;;;4986740;28;20125;-65
2022/09/27 04:36:30;;;;;;;2.22;0.90;;;8.90;99.90;;;;;;4973053;28;20114;-64
2022/09/27 04:38:58;;;;;;;1.80;0.77;;;8.90;99.90;;;;;;4987141;28;20486;-66
2022/09/27 04:41:24;;;;;;;4.70;1.30;;;8.90;99.90;;;;;;4991310;28;20022;-63
2022/09/27 04:43:51;;;;;;;4.70;1.10;;;8.90;99.90;;;;;;4990581;28;20034;-66
2022/09/27 04:46:18;;;;;;;4.28;1.17;;;8.90;99.90;;;;;;4990111;28;20030;-64
2022/09/27 04:48:44;;;;;;;4.32;1.00;;;8.80;99.90;;;;;;4986237;28;20027;-68
2022/09/27 04:51:16;;;;;;;2.10;0.90;;;8.80;99.90;;;;;;4989341;28;20041;-64
2022/09/27 04:53:42;;;;;;;3.72;1.17;;;8.90;99.90;;;;;;4986451;28;20046;-67
2022/09/27 04:56:08;;;;;;;4.68;1.05;;;8.80;99.90;;;;;;4990759;28;20034;-63
2022/09/27 04:58:34;;;;;;;6.00;1.30;;;8.80;99.90;;;;;;4990148;28;20728;-65
2022/09/27 05:01:02;;;;;;;2.03;0.85;;;8.80;99.90;;;;;;4987141;28;20859;-64
2022/09/27 05:03:28;;;;;;;3.75;1.02;;;8.80;99.90;;;;;;4989877;28;20034;-65
2022/09/27 05:05:54;;;;;;;3.47;1.05;;;8.80;99.90;;;;;;4985293;28;20019;-66
2022/09/27 05:08:20;;;;;;;5.88;1.20;;;8.80;99.90;;;;;;4989028;28;20041;-65
2022/09/27 05:10:46;;;;;;;4.95;1.35;;;8.80;99.90;;;;;;4986412;28;20022;-67
2022/09/27 05:13:13;;;;;;;2.38;1.02;;;8.80;99.90;;;;;;4983590;28;20031;-63
2022/09/27 05:15:39;;;;;;;9.77;1.55;;;8.70;99.90;;;;;;4975544;28;20093;-66
2022/09/27 05:18:07;;;;;;;3.40;1.17;;;8.70;99.90;;;;;;4987544;28;20030;-66
2022/09/27 05:20:33;;;;;;;8.68;1.58;;;8.70;99.90;;;;;;4990789;28;20030;-65
2022/09/27 05:22:59;;;;;;;6.45;1.92;;;8.70;99.90;;;;;;4989237;28;20031;-66
2022/09/27 05:25:25;;;;;;;5.65;1.40;;;8.70;99.90;;;;;;4990510;28;20458;-63
2022/09/27 05:27:51;;;;;;;6.50;2.00;;;8.70;99.90;;;;;;4989062;28;20034;-64
2022/09/27 05:30:17;;;;;;;5.70;1.60;;;8.60;99.90;;;;;;4990724;28;20109;-63
2022/09/27 05:32:44;;;;;;;5.43;1.20;;;8.60;99.90;;;;;;4990436;28;20538;-69
2022/09/27 05:35:10;;;;;;;4.07;1.40;;;8.60;99.90;;;;;;4990060;28;20046;-65
2022/09/27 05:37:35;;;;;;;10.80;1.48;;;8.60;99.90;;;;;;4972666;28;20541;-65
2022/09/27 05:40:02;;;;;;;9.48;2.10;;;8.70;99.90;;;;;;4989495;28;20041;-63
2022/09/27 05:42:28;;;;;;;7.88;1.60;;;8.70;99.90;;;;;;4989341;28;20081;-64
2022/09/27 05:44:53;;;;;;;5.95;1.90;;;8.70;99.90;;;;;;4988335;28;20054;-64
2022/09/27 05:47:19;;;;;;;6.47;2.10;;;8.70;99.90;;;;;;4986935;28;20030;-66
2022/09/27 05:49:44;;;;;;;5.57;1.90;;;8.80;99.90;;;;;;4989082;28;20064;-67
2022/09/27 05:52:10;;;;;;;7.40;2.30;;;8.70;99.90;;;;;;4988994;28;20051;-63
2022/09/27 05:54:36;;;;;;;9.57;2.17;;;8.70;99.90;;;;;;4988729;28;20050;-66
2022/09/27 05:57:02;;;;;;;7.13;2.67;;;8.70;99.90;;;;;;4988738;28;20034;-63
2022/09/27 05:59:27;;;;;;;10.43;2.42;;;8.80;99.90;;;;;;4985330;28;20030;-67
2022/09/27 06:01:53;;;;;;;16.98;2.88;;;8.70;99.90;;;;;;4985037;28;20057;-66
2022/09/27 06:04:20;;;;;;;6.93;2.35;;;8.70;99.90;;;;;;4990306;28;20046;-67
2022/09/27 06:06:46;;;;;;;5.60;2.30;;;8.70;99.90;;;;;;4989548;28;20117;-67
2022/09/27 06:09:14;;;;;;;4.30;1.98;;;8.70;99.90;;;;;;4971488;28;20031;-65
2022/09/27 06:11:40;;;;;;;7.30;2.13;;;8.70;99.90;;;;;;4987660;28;20526;-66
2022/09/27 06:14:06;;;;;;;5.03;1.98;;;8.70;99.90;;;;;;4986835;28;20047;-66
2022/09/27 06:16:31;;;;;;;5.45;2.20;;;8.70;99.90;;;;;;4988148;28;20042;-61
2022/09/27 06:18:57;;;;;;;6.07;1.90;;;8.80;99.90;;;;;;4987887;28;20030;-64
2022/09/27 06:21:23;;;;;;;5.93;2.03;;;8.80;99.90;;;;;;4987303;28;20460;-65
2022/09/27 06:23:49;;;;;;;7.10;2.10;;;8.70;99.90;;;;;;4988461;28;20108;-69
2022/09/27 06:26:15;;;;;;;4.00;1.92;;;8.70;99.90;;;;;;4985935;28;20058;-69
2022/09/27 06:28:41;;;;;;;4.32;1.50;;;8.70;99.90;;;;;;4985018;28;20030;-65
2022/09/27 06:31:07;;;;;;;4.05;1.30;;;8.70;99.90;;;;;;4986546;28;20643;-65
2022/09/27 06:33:34;;;;;;;2.60;1.30;;;8.70;99.90;;;;;;4987292;28;20066;-66
2022/09/27 06:36:07;;;;;;;4.85;1.33;;;8.70;99.90;;;;;;4978961;28;20101;-64
2022/09/27 06:38:33;;;;;;;6.35;1.42;;;8.70;99.90;;;;;;4987297;28;20169;-67
2022/09/27 06:41:05;;;;;;;3.70;1.17;;;8.70;99.90;;;;;;4984342;28;20282;-65
2022/09/27 06:43:32;;;;;;;5.95;1.42;;;8.70;99.90;;;;;;4988219;28;20391;-66
2022/09/27 06:46:04;;;;;;;4.07;1.30;;;8.70;99.90;;;;;;4983763;28;20027;-64
2022/09/27 06:48:36;;;;;;;3.33;1.10;;;8.70;99.90;;;;;;4986531;28;20035;-65
2022/09/27 06:51:02;;;;;;;5.22;2.00;;;8.70;99.90;;;;;;4985886;28;20039;-65
2022/09/27 06:53:28;;;;;;;2.80;1.40;;;8.60;99.90;;;;;;4980144;28;20407;-66
2022/09/27 06:56:00;;;;;;;4.43;1.70;;;8.60;99.90;;;;;;4979241;28;20034;-66
2022/09/27 07:01:14;;;;;;;6.40;1.95;;;8.60;99.90;;;;;;4987529;28;20077;-65
2022/09/27 07:03:42;;;;;;;3.45;1.38;;;8.60;99.90;;;;;;4989268;28;20038;-65
2022/09/27 07:06:15;;;;;;;4.40;1.83;;;8.60;99.90;;;;;;4971407;28;20044;-65
2022/09/27 07:08:41;;;;;;;4.90;1.70;;;8.70;99.90;;;;;;4989660;28;20113;-65
2022/09/27 07:11:07;;;;;;;4.93;1.67;;;8.70;99.90;;;;;;4978021;28;20153;-65
2022/09/27 07:13:36;;;;;;;5.57;1.55;;;8.80;99.90;;;;;;4987548;28;20042;-66
2022/09/27 07:16:02;;;;;;;5.05;1.52;;;8.80;99.90;;;;;;4986560;28;20065;-66
2022/09/27 07:18:28;;;;;;;4.47;1.80;;;8.80;99.90;;;;;;4984890;28;21412;-66
2022/09/27 07:20:59;;;;;;;5.20;1.90;;;8.90;99.90;;;;;;4983642;28;20041;-66
2022/09/27 07:23:24;;;;;;;7.95;1.80;;;8.90;99.90;;;;;;4981809;28;20038;-65
2022/09/27 07:25:50;;;;;;;4.07;2.00;;;8.90;99.90;;;;;;4965563;28;20194;-72
2022/09/27 07:28:18;;;;;;;4.57;2.20;;;8.90;99.90;;;;;;4984116;28;20054;-66
2022/09/27 07:30:45;;;;;;;3.30;1.70;;;8.90;99.90;;;;;;4985661;28;20030;-66
2022/09/27 07:33:11;;;;;;;6.10;1.75;;;8.90;99.90;;;;;;4980003;28;20026;-63
2022/09/27 07:35:42;;;;;;;4.03;1.80;;;9.00;99.90;;;;;;4984710;28;20486;-69
2022/09/27 07:38:11;;;;;;;4.85;1.83;;;9.00;99.90;;;;;;4977863;28;20045;-66
2022/09/27 07:40:38;;;;;;;4.75;1.40;;;8.90;99.90;;;;;;4984509;28;20022;-66
2022/09/27 07:43:04;;;;;;;5.60;1.20;;;8.90;99.90;;;;;;4981066;28;20034;-68
2022/09/27 07:45:30;;;;;;;2.85;1.00;;;8.90;99.90;;;;;;4983421;28;20129;-66
2022/09/27 07:47:56;;;;;;;2.22;1.10;;;8.90;99.90;;;;;;4982629;28;20034;-65
2022/09/27 07:50:22;;;;;;;2.58;1.10;;;8.90;99.90;;;;;;4985491;28;20027;-65
2022/09/27 07:52:49;;;;;;;1.63;0.80;;;8.90;99.90;;;;;;4986610;28;20376;-67
2022/09/27 07:55:16;;;;;;;2.30;0.98;;;8.90;99.90;;;;;;4990994;28;20070;-65
2022/09/27 07:57:44;;;;;;;5.63;0.75;;;8.90;99.90;;;;;;4990455;28;20033;-63
2022/09/27 08:00:13;;;;;;;5.57;0.80;;;8.90;99.90;;;;;;5002814;28;20395;-65
2022/09/27 08:02:40;;;;;;;1.65;0.80;;;8.90;99.90;;;;;;4992512;28;20058;-66
2022/09/27 08:05:06;;;;;;;5.13;1.02;;;8.90;99.90;;;;;;4989368;28;20046;-65
2022/09/27 08:07:32;;;;;;;3.03;0.70;;;8.90;99.90;;;;;;4990170;28;20069;-65
2022/09/27 08:09:58;;;;;;;0.75;0.45;;;9.10;99.90;;;;;;4989891;28;20070;-64
2022/09/27 08:12:24;;;;;;;1.52;0.60;;;9.20;99.90;;;;;;4990870;28;20062;-67
2022/09/27 08:14:51;;;;;;;1.15;0.43;;;9.30;99.90;;;;;;4990392;28;20049;-66
2022/09/27 08:17:18;;;;;;;2.05;0.60;;;9.40;99.90;;;;;;4990080;28;20050;-65
2022/09/27 08:19:44;;;;;;;1.00;0.40;;;9.30;99.90;;;;;;4992316;28;20057;-63
2022/09/27 08:22:13;;;;;;;2.38;0.47;;;9.00;99.90;;;;;;4988771;28;20509;-67
2022/09/27 08:24:39;;;;;;;0.80;0.38;;;8.90;99.90;;;;;;4996057;28;20030;-64
2022/09/27 08:27:07;;;;;;;3.08;0.43;;;9.00;99.90;;;;;;4990295;28;20034;-66
2022/09/27 08:29:34;;;;;;;1.15;0.60;;;9.00;99.90;;;;;;4987734;28;20051;-65
2022/09/27 08:32:00;;;;;;;1.23;0.40;;;9.00;99.90;;;;;;4988023;28;20038;-68
2022/09/27 08:34:27;;;;;;;4.35;0.70;;;9.20;99.90;;;;;;4988224;28;20034;-67
2022/09/27 08:36:54;;;;;;;1.67;0.52;;;9.40;99.90;;;;;;4981688;28;20065;-72
2022/09/27 08:39:21;;;;;;;4.65;0.55;;;9.50;99.90;;;;;;4989467;28;20062;-67
2022/09/27 08:41:53;;;;;;;2.38;0.60;;;9.70;99.90;;;;;;4989858;28;20031;-66
2022/09/27 08:44:37;;;;;;;1.48;0.50;;;9.80;99.90;;;;;;4987150;28;20030;-66
2022/09/27 08:47:23;;;;;;;1.00;0.60;;;9.90;99.90;;;;;;4981663;28;20029;-64
2022/09/27 08:50:01;;;;;;;1.58;0.63;;;9.70;99.90;;;;;;4988604;28;20475;-65
2022/09/27 08:52:40;;;;;;;0.93;0.40;;;9.70;99.90;;;;;;4981338;28;20042;-61
2022/09/27 08:55:18;;;;;;;1.75;0.70;;;9.60;99.90;;;;;;4984500;28;20080;-66
2022/09/27 08:57:52;;;;;;;2.47;1.00;;;9.60;99.90;;;;;;4989493;28;20038;-68
2022/09/27 09:00:18;;;;;;;1.75;0.85;;;9.70;99.90;;;;;;4987390;28;20034;-64
2022/09/27 09:02:44;;;;;;;1.70;0.90;;;9.60;99.90;;;;;;4968067;28;20535;-64
2022/09/27 09:05:30;;;;;;;2.00;1.00;;;9.60;99.90;;;;;;4988309;28;20089;-65
2022/09/27 09:08:17;;;;;;;1.98;1.08;;;9.50;99.90;;;;;;4987632;28;20117;-70
2022/09/27 09:14:07;;;;;;;5.07;1.13;;;9.30;99.90;;;;;;4985126;28;20049;-67
2022/09/27 09:16:55;;;;;;;3.35;1.30;;;9.30;99.90;;;;;;4990106;28;20037;-64
2022/09/27 09:19:47;;;;;;;2.95;1.58;;;9.40;99.90;;;;;;4987830;28;20110;-64
2022/09/27 09:22:50;;;;;;;3.63;1.25;;;9.40;99.90;;;;;;4987671;28;20487;-63
2022/09/27 09:25:37;;;;;;;2.08;1.00;;;9.90;99.90;;;;;;4982941;28;20115;-65
2022/09/27 09:28:26;;;;;;;2.20;1.00;;;10.60;99.90;;;;;;4985635;28;20041;-67
2022/09/27 09:31:06;;;;;;;2.08;1.00;;;10.70;99.90;;;;;;4987973;28;20085;-65
2022/09/27 09:33:54;;;;;;;4.25;1.40;;;10.50;99.90;;;;;;4986855;28;20061;-62
2022/09/27 09:36:26;;;;;;;3.25;1.40;;;10.30;99.90;;;;;;4985636;28;20034;-67
2022/09/27 09:39:12;;;;;;;3.58;1.45;;;10.20;99.90;;;;;;4984032;28;20395;-68
2022/09/27 09:41:49;;;;;;;3.65;1.13;;;10.10;99.90;;;;;;4985773;28;20030;-64
2022/09/27 09:44:26;;;;;;;3.28;1.50;;;10.00;99.90;;;;;;4984523;28;20039;-65
2022/09/27 09:46:56;;;;;;;2.03;1.02;;;9.90;99.90;;;;;;4987056;28;20033;-65
2022/09/27 09:49:25;;;;;;;;;;;9.90;99.90;;;;;;4984139;28;20104;-65
2022/09/27 09:51:58;;;;;;;4.75;1.40;;;9.90;99.90;;;;;;4986471;28;19909;-66
2022/09/27 09:54:32;;;;;;;3.42;1.30;;;9.90;99.90;;;;;;4986443;28;20054;-65
2022/09/27 09:57:15;;;;;;;2.17;1.00;;;10.00;99.90;;;;;;4987853;28;20030;-69
2022/09/27 10:00:11;;;;;;;2.25;0.93;;;9.90;99.90;;;;;;4990466;28;20470;-65
2022/09/27 10:02:39;;;;;;;3.05;0.93;;;9.90;99.90;;;;;;4983881;28;20046;-64
2022/09/27 10:05:06;;;;;;;3.92;0.90;;;9.80;99.90;;;;;;4985667;28;20053;-67
2022/09/27 10:07:33;;;;;;;5.97;1.25;;;9.80;99.90;;;;;;4991419;28;20027;-65
2022/09/27 10:10:01;;;;;;;4.32;1.30;;;9.80;99.90;;;;;;4984203;28;20034;-69
2022/09/27 10:12:27;;;;;;;4.38;1.30;;;9.80;99.90;;;;;;4971930;28;20034;-65
2022/09/27 10:14:58;;;;;;;4.53;1.60;;;9.90;99.90;;;;;;4991900;28;20113;-66
2022/09/27 10:17:32;;;;;;;3.80;2.00;;;9.90;99.90;;;;;;4987573;28;20030;-66
2022/09/27 10:19:58;;;;;;;4.85;1.70;;;10.00;99.90;;;;;;4983876;28;20049;-68
2022/09/27 10:22:38;;;;;;;2.20;1.38;;;9.90;99.90;;;;;;4976648;28;20141;-67
2022/09/27 10:25:07;;;;;;;3.60;1.25;;;9.80;99.90;;;;;;4981488;28;20039;-67
2022/09/27 10:27:38;;;;;;;2.95;1.23;;;9.30;99.90;;;;;;4987548;28;20041;-65
2022/09/27 10:30:04;;;;;;;7.20;1.45;;;8.90;99.90;;;;;;4991023;28;20109;-66
2022/09/27 10:32:35;;;;;;;4.53;1.60;;;8.80;99.90;;;;;;4989614;28;20089;-64
2022/09/27 10:35:35;;;;;;;3.35;1.60;;;8.70;99.90;;;;;;4990325;28;20054;-69
2022/09/27 10:38:20;;;;;;;4.78;1.75;;;8.80;99.90;;;;;;4989228;28;20039;-69
2022/09/27 10:40:48;;;;;;;6.38;1.73;;;9.30;99.90;;;;;;4992734;28;20034;-65
2022/09/27 10:43:33;;;;;;;2.90;1.67;;;10.00;99.90;;;;;;4990761;28;20051;-64
2022/09/27 10:46:02;;;;;;;7.45;2.95;;;10.60;99.90;;;;;;4990509;28;20038;-69
2022/09/27 10:48:28;;;;;;;3.45;1.42;;;10.80;99.90;;;;;;4991624;28;20031;-63
2022/09/27 10:51:00;;;;;;;5.65;1.63;;;11.40;99.90;;;;;;4991523;28;20038;-64
2022/09/27 10:53:28;;;;;;;4.85;1.52;;;11.60;99.90;;;;;;4991110;28;20061;-64
2022/09/27 10:55:54;;;;;;;5.47;1.63;;;11.60;99.90;;;;;;4992640;28;20085;-64
2022/09/27 10:58:38;;;;;;;6.65;1.70;;;11.70;99.90;;;;;;4998157;28;20233;-66
2022/09/27 11:01:11;;;;;;;7.70;2.00;;;11.60;99.90;;;;;;4985392;28;20121;-71
2022/09/27 11:03:45;;;;;;;5.13;1.42;;;11.30;99.90;;;;;;4987811;28;20030;-65
2022/09/27 11:06:38;;;;;;;5.28;1.40;;;11.10;99.90;;;;;;4988682;28;20026;-64
2022/09/27 11:09:28;;;;;;;4.93;1.50;;;11.00;99.90;;;;;;4967372;28;20511;-66
2022/09/27 11:12:12;;;;;;;5.28;1.30;;;10.90;99.90;;;;;;4992466;28;20026;-65
2022/09/27 11:14:38;;;;;;;2.55;1.38;;;10.70;99.90;;;;;;4991852;28;20038;-65
2022/09/27 11:17:26;;;;;;;4.25;1.30;;;10.60;99.90;;;;;;4991121;28;20038;-70
2022/09/27 11:19:58;;;;;;;1.88;0.90;;;10.50;99.90;;;;;;4990453;28;20026;-65
2022/09/27 11:22:34;;;;;;;2.25;1.30;;;10.40;99.90;;;;;;4988982;28;20034;-63
2022/09/27 11:25:17;;;;;;;3.35;1.27;;;10.30;99.90;;;;;;4988389;28;20046;-64
2022/09/27 11:27:54;;;;;;;3.38;1.15;;;10.30;99.90;;;;;;4990440;28;20203;-64
2022/09/27 11:30:22;;;;;;;3.35;1.15;;;10.40;99.90;;;;;;4990986;28;20527;-66
2022/09/27 11:33:08;;;;;;;3.53;1.00;;;10.30;99.90;;;;;;4989653;28;20403;-64
2022/09/27 11:36:06;;;;;;;4.13;1.30;;;10.30;99.90;;;;;;4988424;28;20033;-66
2022/09/27 11:38:41;;;;;;;3.85;1.10;;;10.30;99.90;;;;;;4986275;28;20084;-64
2022/09/27 11:41:33;;;;;;;2.45;1.30;;;10.30;99.90;;;;;;4990099;28;20030;-71
2022/09/27 11:44:18;;;;;;;3.47;1.30;;;10.20;99.90;;;;;;4989685;28;20034;-64
2022/09/27 11:47:06;;;;;;;3.67;1.40;;;10.10;99.90;;;;;;4977276;28;20030;-67
2022/09/27 11:49:40;;;;;;;5.35;1.60;;;10.00;99.90;;;;;;4985279;28;20026;-64
2022/09/27 11:52:12;;;;;;;2.35;1.15;;;9.90;99.90;;;;;;4982348;28;20030;-67
2022/09/27 11:54:50;;;;;;;3.58;1.23;;;10.00;99.90;;;;;;4988542;28;20450;-65
2022/09/27 11:57:22;;;;;;;2.33;1.25;;;10.00;99.90;;;;;;4986395;28;20116;-66
2022/09/27 11:59:54;;;;;;;4.70;1.50;;;9.90;99.90;;;;;;4991380;28;20065;-65
2022/09/27 12:02:28;;;;;;;2.03;1.33;;;10.00;99.90;;;;;;4989726;28;20078;-65
2022/09/27 12:04:54;;;;;;;3.25;1.20;;;10.00;99.90;;;;;;4970886;28;20399;-66
2022/09/27 12:07:44;;;;;;;3.05;1.85;;;10.10;99.90;;;;;;4974302;28;20066;-65
2022/09/27 12:10:15;;;;;;;2.75;1.38;;;10.30;99.90;;;;;;4995629;28;20158;-66
2022/09/27 12:12:44;;;;;;;3.92;1.90;;;10.70;99.90;;;;;;4990776;28;20030;-65
2022/09/27 12:15:23;;;;;;;3.47;1.30;;;10.70;99.90;;;;;;4987447;28;20038;-70
2022/09/27 12:17:54;;;;;;;3.90;1.48;;;10.80;99.90;;;;;;4988798;28;20603;-66
2022/09/27 12:20:25;;;;;;;4.20;1.55;;;10.80;99.90;;;;;;4988813;28;20042;-66
2022/09/27 12:22:55;;;;;;;3.78;1.73;;;11.00;99.90;;;;;;4986189;28;20104;-65
2022/09/27 12:25:24;;;;;;;5.10;1.92;;;11.00;99.90;;;;;;4987117;28;20117;-65
2022/09/27 12:28:10;;;;;;;10.05;1.95;;;11.00;99.90;;;;;;4983384;28;20035;-63
2022/09/27 12:30:40;;;;;;;3.85;1.55;;;11.00;99.90;;;;;;4988572;28;20049;-67
2022/09/27 12:33:28;;;;;;;8.27;2.90;;;11.00;99.90;;;;;;4985611;28;20031;-69
2022/09/27 12:35:58;;;;;;;3.97;1.88;;;11.00;99.90;;;;;;4988876;28;20042;-65
2022/09/27 12:38:44;;;;;;;4.18;1.70;;;11.10;99.90;;;;;;4996155;28;20472;-66
2022/09/27 12:41:14;;;;;;;5.45;1.70;;;11.00;99.90;;;;;;4987147;28;20038;-68
2022/09/27 12:43:43;;;;;;;4.35;1.73;;;10.70;99.90;;;;;;4990715;28;20141;-65
2022/09/27 12:46:17;;;;;;;2.95;1.80;;;10.50;99.90;;;;;;4989639;28;20026;-71
2022/09/27 12:48:48;;;;;;;4.85;1.65;;;10.20;99.90;;;;;;4988502;28;20026;-64
2022/09/27 12:51:19;;;;;;;3.33;1.13;;;10.10;99.90;;;;;;4985335;28;20088;-67
2022/09/27 12:54:21;;;;;;;1.75;0.50;;;9.50;99.90;;;;;;4988728;28;20046;-66
2022/09/27 12:57:25;;;;;;;1.30;0.43;;;9.00;99.90;;;;;;4987567;28;20112;-64
2022/09/27 12:59:51;;;;;;;2.42;0.57;;;8.60;99.90;;;;;;4979982;28;20019;-66
2022/09/27 13:02:35;;;;;;;0.40;0.22;;;8.70;99.90;;;;;;4988355;28;20356;-65
2022/09/27 13:05:27;;;;;;;5.32;2.03;;;8.90;99.90;;;;;;4987054;28;20045;-67
2022/09/27 13:08:04;;;;;;;2.65;0.32;;;9.10;99.90;;;;;;4989701;28;20047;-63
2022/09/27 13:11:02;;;;;;;0.20;0.10;;;9.00;99.90;;;;;;4989927;28;20649;-64
2022/09/27 13:13:28;;;;;;;1.00;0.28;;;8.80;99.90;;;;;;4969701;28;20035;-65
2022/09/27 13:16:00;;;;;;;2.10;0.20;;;8.60;99.90;;;;;;4981624;28;20053;-65
2022/09/27 13:18:35;;;;;;;1.42;0.38;;;8.40;99.90;;;;;;4988342;28;20034;-64
2022/09/27 13:21:03;;;;;;;1.58;0.40;;;8.30;99.90;;;;;;4990248;28;20042;-65
2022/09/27 13:23:30;;;;;;;3.33;0.40;;;8.30;99.90;;;;;;4989409;28;20514;-66
2022/09/27 13:26:02;;;;;;;1.77;0.50;;;8.30;99.90;;;;;;4988441;28;20119;-66